createdAt,value
2022-11-15T00:00:32.744Z,0.00
2022-11-15T00:01:32.677Z,0.00
2022-11-15T00:02:32.701Z,0.00
2022-11-15T00:03:32.929Z,0.00
2022-11-15T00:04:32.771Z,0.00
2022-11-15T00:05:32.668Z,0.00
2022-11-15T00:06:32.625Z,0.00
2022-11-15T00:07:54.536Z,0.00
2022-11-15T00:08:33.583Z,0.00
2022-11-15T00:09:32.587Z,0.00
2022-11-15T00:10:32.608Z,0.00
2022-11-15T00:11:32.563Z,0.00
2022-11-15T00:12:32.575Z,0.00
2022-11-15T00:13:33.049Z,0.00
2022-11-15T00:14:32.521Z,0.00
2022-11-15T00:15:32.534Z,0.00
2022-11-15T00:16:32.505Z,0.00
2022-11-15T00:17:32.540Z,0.00
2022-11-15T00:18:32.531Z,0.00
2022-11-15T00:19:32.520Z,0.00
2022-11-15T00:20:32.466Z,0.00
2022-11-15T00:21:32.465Z,0.00
2022-11-15T00:22:32.451Z,0.00
2022-11-15T00:23:32.757Z,0.00
2022-11-15T00:24:32.414Z,0.00
2022-11-15T00:25:36.341Z,0.00
2022-11-15T00:26:32.394Z,0.00
2022-11-15T00:27:32.406Z,0.00
2022-11-15T00:28:32.374Z,0.00
2022-11-15T00:29:32.364Z,0.00
2022-11-15T00:30:32.385Z,0.00
2022-11-15T00:31:32.369Z,0.00
2022-11-15T00:32:32.401Z,0.00
2022-11-15T00:33:32.818Z,0.00
2022-11-15T00:34:32.313Z,0.00
2022-11-15T00:35:32.591Z,0.00
2022-11-15T00:36:32.267Z,0.00
2022-11-15T00:37:32.353Z,0.00
2022-11-15T00:38:32.252Z,0.00
2022-11-15T00:39:32.239Z,0.00
2022-11-15T00:40:32.291Z,0.00
2022-11-15T00:41:32.261Z,0.00
2022-11-15T00:42:32.222Z,0.00
2022-11-15T00:43:32.642Z,0.00
2022-11-15T00:44:37.064Z,0.00
2022-11-15T00:45:32.194Z,0.00
2022-11-15T00:46:35.982Z,0.00
2022-11-15T00:47:32.192Z,0.00
2022-11-15T00:48:32.180Z,0.00
2022-11-15T00:49:32.150Z,0.00
2022-11-15T00:50:32.192Z,0.00
2022-11-15T00:51:32.162Z,0.00
2022-11-15T00:52:32.244Z,0.00
2022-11-15T00:53:32.716Z,0.00
2022-11-15T00:54:32.178Z,0.00
2022-11-15T00:55:32.106Z,0.00
2022-11-15T00:56:32.078Z,0.00
2022-11-15T00:57:32.070Z,0.00
2022-11-15T00:58:32.071Z,0.00
2022-11-15T00:59:32.172Z,0.00
2022-11-15T01:00:32.201Z,0.00
2022-11-15T01:01:32.154Z,0.00
2022-11-15T01:02:32.020Z,0.00
2022-11-15T01:03:32.362Z,0.00
2022-11-15T01:04:32.019Z,0.00
2022-11-15T01:05:32.065Z,0.00
2022-11-15T01:06:32.166Z,0.00
2022-11-15T01:07:32.003Z,0.00
2022-11-15T01:08:31.995Z,0.00
2022-11-15T01:09:32.012Z,0.00
2022-11-15T01:10:31.960Z,0.00
2022-11-15T01:11:32.011Z,0.00
2022-11-15T01:12:31.901Z,0.00
2022-11-15T01:13:32.256Z,0.00
2022-11-15T01:14:31.935Z,0.00
2022-11-15T01:15:31.902Z,0.00
2022-11-15T01:16:31.856Z,0.00
2022-11-15T01:17:31.914Z,0.00
2022-11-15T01:18:31.832Z,0.00
2022-11-15T01:19:31.890Z,0.00
2022-11-15T01:20:31.844Z,0.00
2022-11-15T01:21:31.962Z,0.00
2022-11-15T01:22:31.832Z,0.00
2022-11-15T01:23:32.130Z,0.00
2022-11-15T01:24:31.795Z,0.00
2022-11-15T01:31:19.998Z,0.00
2022-11-15T01:32:20.122Z,0.00
2022-11-15T01:32:58.414Z,0.00
2022-11-15T01:34:10.782Z,0.00
2022-11-15T01:35:24.660Z,0.00
2022-11-15T01:45:40.317Z,0.00
2022-11-15T01:46:27.043Z,0.00
2022-11-15T01:47:21.636Z,0.00
2022-11-15T01:48:39.127Z,0.00
2022-11-15T01:49:22.525Z,0.00
2022-11-15T02:49:57.614Z,0.00
2022-11-15T02:55:54.385Z,0.00
2022-11-15T03:00:22.987Z,0.00
2022-11-15T03:00:39.023Z,0.00
2022-11-15T03:01:41.234Z,0.00
2022-11-15T03:02:38.780Z,0.00
2022-11-15T03:14:10.308Z,0.00
2022-11-15T03:15:09.140Z,0.00
2022-11-15T03:15:46.845Z,0.00
2022-11-15T03:16:47.188Z,0.00
2022-11-15T03:17:47.674Z,0.00
2022-11-15T03:18:47.027Z,0.00
2022-11-15T03:19:46.784Z,0.00
2022-11-15T03:20:49.878Z,0.00
2022-11-15T03:21:59.188Z,0.00
2022-11-15T03:22:47.225Z,0.00
2022-11-15T03:23:46.766Z,0.00
2022-11-15T03:24:47.716Z,0.00
2022-11-15T03:25:46.816Z,0.00
2022-11-15T03:26:49.458Z,0.00
2022-11-15T03:27:47.751Z,0.00
2022-11-15T03:28:46.761Z,0.00
2022-11-15T03:29:46.665Z,0.00
2022-11-15T03:31:05.167Z,0.00
2022-11-15T03:31:50.574Z,0.00
2022-11-15T03:32:47.082Z,0.00
2022-11-15T03:33:47.184Z,0.00
2022-11-15T03:34:46.878Z,0.00
2022-11-15T03:35:49.675Z,0.00
2022-11-15T03:36:47.418Z,0.00
2022-11-15T03:37:47.969Z,0.00
2022-11-15T03:38:48.726Z,0.00
2022-11-15T03:39:46.875Z,0.00
2022-11-15T03:40:48.673Z,0.00
2022-11-15T03:42:11.651Z,0.00
2022-11-15T03:42:47.396Z,0.00
2022-11-15T03:43:47.728Z,0.00
2022-11-15T03:44:47.149Z,0.00
2022-11-15T03:45:46.657Z,0.00
2022-11-15T03:46:50.160Z,0.00
2022-11-15T03:47:46.724Z,0.00
2022-11-15T03:48:47.321Z,0.00
2022-11-15T03:49:46.652Z,0.00
2022-11-15T03:50:46.633Z,0.00
2022-11-15T03:51:47.028Z,0.00
2022-11-15T03:52:46.349Z,0.00
2022-11-15T03:53:46.703Z,0.00
2022-11-15T03:54:47.641Z,0.00
2022-11-15T03:55:46.362Z,0.00
2022-11-15T03:56:47.552Z,0.00
2022-11-15T03:57:47.314Z,0.00
2022-11-15T03:58:46.285Z,0.00
2022-11-15T03:59:46.320Z,0.00
2022-11-15T04:00:46.892Z,0.00
2022-11-15T04:01:46.515Z,0.00
2022-11-15T04:02:55.081Z,0.00
2022-11-15T04:03:46.789Z,0.00
2022-11-15T04:04:46.403Z,0.00
2022-11-15T04:05:46.162Z,0.00
2022-11-15T04:06:46.741Z,0.00
2022-11-15T04:07:46.204Z,0.00
2022-11-15T04:08:46.212Z,0.00
2022-11-15T04:09:46.303Z,0.00
2022-11-15T04:10:47.498Z,0.00
2022-11-15T04:11:48.366Z,0.00
2022-11-15T04:12:46.332Z,0.00
2022-11-15T04:14:07.255Z,0.00
2022-11-15T04:14:47.771Z,0.00
2022-11-15T04:15:46.821Z,0.00
2022-11-15T04:16:46.977Z,0.00
2022-11-15T04:17:47.144Z,0.00
2022-11-15T04:18:46.626Z,0.00
2022-11-15T04:19:46.209Z,0.00
2022-11-15T04:20:46.211Z,0.00
2022-11-15T04:21:46.388Z,0.00
2022-11-15T04:22:46.092Z,0.00
2022-11-15T04:23:46.053Z,0.00
2022-11-15T04:24:46.045Z,0.00
2022-11-15T04:25:50.437Z,0.00
2022-11-15T04:26:49.168Z,0.00
2022-11-15T04:27:57.730Z,0.00
2022-11-15T04:28:46.014Z,0.00
2022-11-15T04:30:07.458Z,0.00
2022-11-15T04:30:47.206Z,0.00
2022-11-15T04:31:48.307Z,0.00
2022-11-15T04:32:48.594Z,0.00
2022-11-15T04:33:47.703Z,0.00
2022-11-15T04:35:07.546Z,0.00
2022-11-15T04:35:58.234Z,0.00
2022-11-15T04:36:50.847Z,0.00
2022-11-15T04:37:55.814Z,0.00
2022-11-15T05:01:37.609Z,0.00
2022-11-15T05:19:40.157Z,0.00
2022-11-15T05:27:13.925Z,0.00
2022-11-15T05:28:08.345Z,0.00
2022-11-15T05:29:06.906Z,0.00
2022-11-15T05:30:06.886Z,0.00
2022-11-15T05:31:06.876Z,0.00
2022-11-15T05:32:06.852Z,0.00
2022-11-15T05:33:06.875Z,0.00
2022-11-15T05:34:06.825Z,0.00
2022-11-15T05:35:06.816Z,0.00
2022-11-15T05:36:06.812Z,0.00
2022-11-15T05:37:06.800Z,0.00
2022-11-15T05:38:06.784Z,0.00
2022-11-15T05:39:08.915Z,0.00
2022-11-15T05:40:06.761Z,0.00
2022-11-15T05:41:06.751Z,0.00
2022-11-15T05:42:06.738Z,0.00
2022-11-15T05:43:06.735Z,0.00
2022-11-15T05:44:06.717Z,0.00
2022-11-15T05:45:06.724Z,0.00
2022-11-15T05:46:06.704Z,0.00
2022-11-15T05:47:06.715Z,0.00
2022-11-15T05:48:06.676Z,0.00
2022-11-15T05:49:06.666Z,0.00
2022-11-15T05:50:06.678Z,0.00
2022-11-15T05:51:06.644Z,0.00
2022-11-15T05:52:06.631Z,0.00
2022-11-15T05:53:06.627Z,0.00
2022-11-15T05:54:06.632Z,0.00
2022-11-15T05:55:06.603Z,0.00
2022-11-15T05:56:06.598Z,0.00
2022-11-15T05:57:06.601Z,0.00
2022-11-15T05:58:06.583Z,0.00
2022-11-15T05:59:06.577Z,0.00
2022-11-15T06:00:06.548Z,0.00
2022-11-15T06:01:06.529Z,0.00
2022-11-15T06:02:06.629Z,0.00
2022-11-15T06:03:06.517Z,0.00
2022-11-15T06:04:06.608Z,0.00
2022-11-15T06:05:06.502Z,0.00
2022-11-15T06:06:06.487Z,0.00
2022-11-15T06:07:06.503Z,0.00
2022-11-15T06:08:06.469Z,0.00
2022-11-15T06:09:06.476Z,0.00
2022-11-15T06:10:06.445Z,0.00
2022-11-15T06:11:06.456Z,4.00
2022-11-15T06:12:06.424Z,0.00
2022-11-15T06:13:06.410Z,4.00
2022-11-15T06:14:06.410Z,0.00
2022-11-15T06:15:06.383Z,4.00
2022-11-15T06:16:06.381Z,4.00
2022-11-15T06:17:11.113Z,4.00
2022-11-15T06:18:07.364Z,4.00
2022-11-15T06:19:06.390Z,8.00
2022-11-15T06:20:06.338Z,4.00
2022-11-15T06:21:06.333Z,4.00
2022-11-15T06:22:06.308Z,8.00
2022-11-15T06:23:06.311Z,8.00
2022-11-15T06:24:06.309Z,12.00
2022-11-15T06:25:06.281Z,12.00
2022-11-15T06:26:06.296Z,12.00
2022-11-15T06:27:06.264Z,12.00
2022-11-15T06:28:06.280Z,16.00
2022-11-15T06:29:06.367Z,20.00
2022-11-15T06:30:06.259Z,24.00
2022-11-15T06:31:06.235Z,24.00
2022-11-15T06:32:06.199Z,28.00
2022-11-15T06:33:06.196Z,40.00
2022-11-15T06:34:06.182Z,40.00
2022-11-15T06:35:06.497Z,44.00
2022-11-15T06:36:06.191Z,52.00
2022-11-15T06:37:06.161Z,56.00
2022-11-15T06:38:06.152Z,60.00
2022-11-15T06:39:06.133Z,68.00
2022-11-15T06:40:06.108Z,72.00
2022-11-15T06:41:06.106Z,80.00
2022-11-15T06:42:06.091Z,80.00
2022-11-15T06:43:06.087Z,84.00
2022-11-15T06:44:06.079Z,88.00
2022-11-15T06:45:06.069Z,92.00
2022-11-15T06:46:06.060Z,96.00
2022-11-15T06:47:06.038Z,100.00
2022-11-15T06:48:06.028Z,112.00
2022-11-15T06:49:09.621Z,124.00
2022-11-15T06:50:06.016Z,140.00
2022-11-15T06:51:06.025Z,156.00
2022-11-15T06:52:05.993Z,180.00
2022-11-15T06:53:05.985Z,204.00
2022-11-15T06:54:05.997Z,228.00
2022-11-15T06:55:05.966Z,252.00
2022-11-15T06:56:05.942Z,288.00
2022-11-15T06:57:05.928Z,332.00
2022-11-15T06:58:05.941Z,388.00
2022-11-15T06:59:05.909Z,456.00
2022-11-15T07:00:05.912Z,540.00
2022-11-15T07:01:05.957Z,632.00
2022-11-15T07:02:05.878Z,720.00
2022-11-15T07:03:05.875Z,792.00
2022-11-15T07:04:05.861Z,856.00
2022-11-15T07:05:05.862Z,920.00
2022-11-15T07:06:07.760Z,992.00
2022-11-15T07:07:05.895Z,1084.00
2022-11-15T07:08:05.840Z,1164.00
2022-11-15T07:09:05.819Z,1200.00
2022-11-15T07:10:05.810Z,1212.00
2022-11-15T07:11:05.779Z,1216.00
2022-11-15T07:12:07.873Z,1200.00
2022-11-15T07:13:05.770Z,1184.00
2022-11-15T07:14:05.761Z,1160.00
2022-11-15T07:15:05.737Z,1152.00
2022-11-15T07:16:05.737Z,1160.00
2022-11-15T07:17:05.733Z,1184.00
2022-11-15T07:18:05.746Z,1200.00
2022-11-15T07:19:05.721Z,1244.00
2022-11-15T07:20:05.689Z,1292.00
2022-11-15T07:21:05.682Z,1364.00
2022-11-15T07:22:05.672Z,1456.00
2022-11-15T07:23:05.657Z,1588.00
2022-11-15T07:24:05.649Z,1748.00
2022-11-15T07:25:05.644Z,1924.00
2022-11-15T07:26:05.630Z,2068.00
2022-11-15T07:27:05.651Z,2164.00
2022-11-15T07:28:05.613Z,2228.00
2022-11-15T07:29:05.651Z,2292.00
2022-11-15T07:30:05.580Z,2352.00
2022-11-15T07:31:05.587Z,2420.00
2022-11-15T07:32:05.573Z,2496.00
2022-11-15T07:33:05.548Z,2512.00
2022-11-15T07:34:05.539Z,2520.00
2022-11-15T07:35:05.530Z,2452.00
2022-11-15T07:36:05.529Z,2364.00
2022-11-15T07:37:05.528Z,2188.00
2022-11-15T07:38:05.509Z,1896.00
2022-11-15T07:39:05.560Z,1792.00
2022-11-15T07:40:05.497Z,1744.00
2022-11-15T07:41:05.464Z,1712.00
2022-11-15T07:42:05.470Z,1752.00
2022-11-15T07:43:05.449Z,1800.00
2022-11-15T07:44:05.448Z,1768.00
2022-11-15T07:45:05.421Z,1724.00
2022-11-15T07:46:05.431Z,1704.00
2022-11-15T07:47:05.397Z,1672.00
2022-11-15T07:48:05.390Z,1652.00
2022-11-15T07:49:05.412Z,1616.00
2022-11-15T07:50:05.367Z,1508.00
2022-11-15T07:51:08.790Z,1468.00
2022-11-15T07:52:06.364Z,1448.00
2022-11-15T07:53:05.330Z,1432.00
2022-11-15T07:54:05.345Z,1420.00
2022-11-15T07:55:05.327Z,1404.00
2022-11-15T07:56:05.309Z,1368.00
2022-11-15T07:57:07.611Z,1396.00
2022-11-15T07:58:05.276Z,1436.00
2022-11-15T07:59:05.272Z,1472.00
2022-11-15T08:00:05.275Z,1496.00
2022-11-15T08:01:05.449Z,1548.00
2022-11-15T08:02:05.325Z,1560.00
2022-11-15T08:03:05.227Z,1576.00
2022-11-15T08:04:05.244Z,1592.00
2022-11-15T08:05:05.223Z,1620.00
2022-11-15T08:06:05.217Z,1680.00
2022-11-15T08:07:05.217Z,1704.00
2022-11-15T08:08:05.737Z,1732.00
2022-11-15T08:09:05.164Z,1796.00
2022-11-15T08:10:05.238Z,1860.00
2022-11-15T08:11:05.168Z,1888.00
2022-11-15T08:12:05.135Z,1916.00
2022-11-15T08:13:05.180Z,1996.00
2022-11-15T08:14:05.129Z,2100.00
2022-11-15T08:15:05.109Z,2212.00
2022-11-15T08:16:05.109Z,2328.00
2022-11-15T08:17:05.090Z,2532.00
2022-11-15T08:18:05.054Z,2804.00
2022-11-15T08:19:05.060Z,3080.00
2022-11-15T08:20:05.052Z,3312.00
2022-11-15T08:21:05.057Z,3568.00
2022-11-15T08:22:05.015Z,3904.00
2022-11-15T08:23:04.995Z,4248.00
2022-11-15T08:24:05.006Z,4596.00
2022-11-15T08:25:05.002Z,5020.00
2022-11-15T08:26:04.977Z,5356.00
2022-11-15T08:27:05.011Z,5740.00
2022-11-15T08:28:04.959Z,6096.00
2022-11-15T08:29:04.956Z,6232.00
2022-11-15T08:30:04.947Z,6624.00
2022-11-15T08:31:04.927Z,6712.00
2022-11-15T08:32:04.942Z,7048.00
2022-11-15T08:33:04.906Z,7376.00
2022-11-15T08:34:04.899Z,7736.00
2022-11-15T08:35:04.881Z,7768.00
2022-11-15T08:36:04.877Z,7824.00
2022-11-15T08:37:04.854Z,7936.00
2022-11-15T08:38:04.854Z,7692.00
2022-11-15T08:39:06.597Z,7608.00
2022-11-15T08:40:04.832Z,7940.00
2022-11-15T08:41:04.827Z,8128.00
2022-11-15T08:42:04.822Z,8144.00
2022-11-15T08:43:04.802Z,8112.00
2022-11-15T08:44:04.777Z,7644.00
2022-11-15T08:45:04.778Z,8256.00
2022-11-15T08:46:04.766Z,8456.00
2022-11-15T08:47:04.765Z,8504.00
2022-11-15T08:48:04.747Z,8296.00
2022-11-15T08:49:04.748Z,8552.00
2022-11-15T08:50:04.742Z,8008.00
2022-11-15T08:51:04.808Z,7992.00
2022-11-15T08:52:04.706Z,8408.00
2022-11-15T08:53:04.693Z,8384.00
2022-11-15T08:54:04.687Z,8376.00
2022-11-15T08:55:04.664Z,8448.00
2022-11-15T08:56:04.670Z,8468.00
2022-11-15T08:57:04.658Z,7912.00
2022-11-15T08:58:04.643Z,7956.00
2022-11-15T08:59:04.660Z,7660.00
2022-11-15T09:00:04.639Z,8020.00
2022-11-15T09:01:04.676Z,7572.00
2022-11-15T09:02:04.646Z,7428.00
2022-11-15T09:03:04.583Z,7048.00
2022-11-15T09:04:04.587Z,7280.00
2022-11-15T09:05:04.570Z,7112.00
2022-11-15T09:06:04.552Z,7036.00
2022-11-15T09:07:04.589Z,7028.00
2022-11-15T09:08:19.124Z,7436.00
2022-11-15T09:09:05.523Z,7784.00
2022-11-15T09:10:06.279Z,8012.00
2022-11-15T09:11:04.497Z,8052.00
2022-11-15T09:12:04.497Z,8116.00
2022-11-15T09:13:04.489Z,8416.00
2022-11-15T09:14:04.476Z,9008.00
2022-11-15T09:15:04.467Z,9616.00
2022-11-15T09:16:04.462Z,9980.00
2022-11-15T09:17:04.430Z,10084.00
2022-11-15T09:18:04.439Z,9928.00
2022-11-15T09:20:05.431Z,10400.00
2022-11-15T09:21:04.388Z,12212.00
2022-11-15T09:22:04.378Z,12668.00
2022-11-15T09:23:04.398Z,13500.00
2022-11-15T09:24:04.366Z,13308.00
2022-11-15T09:25:07.335Z,12584.00
2022-11-15T09:26:05.356Z,12700.00
2022-11-15T09:27:04.331Z,13388.00
2022-11-15T09:28:04.326Z,13076.00
2022-11-15T09:29:04.323Z,12288.00
2022-11-15T09:30:05.149Z,12056.00
2022-11-15T09:31:04.306Z,12016.00
2022-11-15T09:32:04.280Z,11996.00
2022-11-15T09:33:04.292Z,12344.00
2022-11-15T09:34:04.270Z,12476.00
2022-11-15T09:35:04.232Z,14888.00
2022-11-15T09:36:04.229Z,14660.00
2022-11-15T09:37:04.216Z,14416.00
2022-11-15T09:38:04.201Z,15872.00
2022-11-15T09:39:04.199Z,19424.00
2022-11-15T09:40:04.200Z,25248.00
2022-11-15T09:41:04.391Z,31968.00
2022-11-15T09:42:04.246Z,40320.00
2022-11-15T09:43:04.187Z,41504.00
2022-11-15T09:44:04.152Z,40224.00
2022-11-15T09:45:04.154Z,40544.00
2022-11-15T09:46:04.157Z,37984.00
2022-11-15T09:47:04.106Z,48480.00
2022-11-15T09:48:04.098Z,47904.00
2022-11-15T09:49:04.078Z,46016.00
2022-11-15T09:50:05.073Z,46048.00
2022-11-15T09:51:04.070Z,45856.00
2022-11-15T09:52:04.061Z,43456.00
2022-11-15T09:53:04.073Z,41440.00
2022-11-15T09:54:50.964Z,38848.00
2022-11-15T09:55:05.029Z,39648.00
2022-11-15T09:56:04.022Z,45184.00
2022-11-15T09:57:04.002Z,48160.00
2022-11-15T09:58:03.996Z,46784.00
2022-11-15T09:59:03.990Z,47616.00
2022-11-15T10:00:30.766Z,50528.00
2022-11-15T10:01:04.972Z,48992.00
2022-11-15T10:02:03.984Z,44192.00
2022-11-15T10:03:03.973Z,46208.00
2022-11-15T10:04:07.843Z,44896.00
2022-11-15T10:05:04.923Z,47424.00
2022-11-15T10:06:03.942Z,50400.00
2022-11-15T10:07:03.964Z,52384.00
2022-11-15T10:08:03.895Z,55200.00
2022-11-15T10:09:03.896Z,54048.00
2022-11-15T10:10:03.858Z,53216.00
2022-11-15T10:12:05.830Z,52128.00
2022-11-15T10:13:03.835Z,46784.00
2022-11-15T10:14:03.821Z,43872.00
2022-11-15T10:15:03.811Z,45120.00
2022-11-15T10:16:03.793Z,47072.00
2022-11-15T10:17:03.785Z,51328.00
2022-11-15T10:18:03.776Z,52448.00
2022-11-15T10:19:03.767Z,49728.00
2022-11-15T10:20:05.941Z,49472.00
2022-11-15T10:21:03.764Z,49280.00
2022-11-15T10:22:03.730Z,49056.00
2022-11-15T10:23:03.746Z,52800.00
2022-11-15T10:24:03.743Z,51392.00
2022-11-15T10:25:03.703Z,51296.00
2022-11-15T10:26:06.845Z,52192.00
2022-11-15T10:27:03.690Z,52960.00
2022-11-15T10:28:03.671Z,54432.00
2022-11-15T10:29:03.662Z,55904.00
2022-11-15T10:30:03.650Z,56640.00
2022-11-15T10:31:03.646Z,56992.00
2022-11-15T10:32:03.626Z,57184.00
2022-11-15T10:33:03.624Z,55648.00
2022-11-15T10:34:03.598Z,60000.00
2022-11-15T10:35:03.619Z,68832.00
2022-11-15T10:36:03.580Z,68832.00
2022-11-15T10:37:03.577Z,65312.00
2022-11-15T10:38:03.569Z,63840.00
2022-11-15T10:39:03.556Z,64192.00
2022-11-15T10:40:03.540Z,61568.00
2022-11-15T10:41:03.521Z,57152.00
2022-11-15T10:42:09.574Z,52128.00
2022-11-15T10:43:05.493Z,51968.00
2022-11-15T10:44:03.490Z,56032.00
2022-11-15T10:45:03.502Z,56640.00
2022-11-15T10:46:24.707Z,52544.00
2022-11-15T10:47:04.476Z,50784.00
2022-11-15T10:48:03.450Z,55136.00
2022-11-15T10:49:03.461Z,55520.00
2022-11-15T10:50:03.430Z,55968.00
2022-11-15T10:51:03.422Z,56288.00
2022-11-15T10:52:03.413Z,37696.00
2022-11-15T10:53:03.402Z,57184.00
2022-11-15T10:54:05.662Z,43808.00
2022-11-15T10:55:04.383Z,52960.00
2022-11-15T10:56:03.359Z,59264.00
2022-11-15T10:57:03.372Z,59712.00
2022-11-15T10:58:03.360Z,64128.00
2022-11-15T10:59:03.330Z,68896.00
2022-11-15T11:00:03.322Z,70400.00
2022-11-15T11:01:03.371Z,72320.00
2022-11-15T11:02:03.313Z,75552.00
2022-11-15T11:03:03.303Z,78016.00
2022-11-15T11:04:03.303Z,78112.00
2022-11-15T11:05:03.276Z,77088.00
2022-11-15T11:06:03.243Z,77856.00
2022-11-15T11:07:03.311Z,79616.00
2022-11-15T11:08:03.256Z,77440.00
2022-11-15T11:09:03.257Z,82080.00
2022-11-15T11:10:03.632Z,80704.00
2022-11-15T11:11:03.978Z,80672.00
2022-11-15T11:12:03.191Z,83360.00
2022-11-15T11:13:03.216Z,83616.00
2022-11-15T11:14:03.400Z,82080.00
2022-11-15T11:15:03.165Z,80032.00
2022-11-15T11:16:03.150Z,80448.00
2022-11-15T11:17:03.135Z,77824.00
2022-11-15T11:18:03.148Z,82528.00
2022-11-15T11:19:03.117Z,82624.00
2022-11-15T11:20:03.114Z,85472.00
2022-11-15T11:21:03.125Z,84384.00
2022-11-15T11:22:03.111Z,83488.00
2022-11-15T11:23:03.087Z,84768.00
2022-11-15T11:24:03.067Z,82624.00
2022-11-15T11:25:03.064Z,86144.00
2022-11-15T11:26:03.402Z,81472.00
2022-11-15T11:27:03.047Z,75616.00
2022-11-15T11:28:03.042Z,74112.00
2022-11-15T11:29:03.035Z,75232.00
2022-11-15T11:30:03.011Z,74848.00
2022-11-15T11:31:03.011Z,76480.00
2022-11-15T11:32:02.991Z,77184.00
2022-11-15T11:33:02.988Z,76032.00
2022-11-15T11:34:02.958Z,71104.00
2022-11-15T11:35:02.965Z,74720.00
2022-11-15T11:36:02.943Z,77888.00
2022-11-15T11:37:02.953Z,78368.00
2022-11-15T11:38:02.950Z,83584.00
2022-11-15T11:39:02.916Z,85728.00
2022-11-15T11:40:07.486Z,89184.00
2022-11-15T11:41:03.899Z,89856.00
2022-11-15T11:42:02.873Z,90784.00
2022-11-15T11:43:02.868Z,90400.00
2022-11-15T11:44:02.876Z,86688.00
2022-11-15T11:45:02.882Z,83488.00
2022-11-15T11:46:02.832Z,83264.00
2022-11-15T11:47:02.846Z,74528.00
2022-11-15T11:48:02.829Z,82176.00
2022-11-15T11:49:02.809Z,82912.00
2022-11-15T11:50:03.744Z,36864.00
2022-11-15T11:51:02.783Z,85856.00
2022-11-15T11:52:02.772Z,85760.00
2022-11-15T11:53:04.386Z,86016.00
2022-11-15T11:54:02.775Z,87648.00
2022-11-15T11:55:02.736Z,55008.00
2022-11-15T11:56:02.728Z,24832.00
2022-11-15T11:57:02.734Z,64864.00
2022-11-15T11:58:02.737Z,81376.00
2022-11-15T11:59:02.714Z,79136.00
2022-11-15T12:00:02.687Z,75680.00
2022-11-15T12:01:02.684Z,81792.00
2022-11-15T12:02:02.787Z,80320.00
2022-11-15T12:03:02.803Z,26432.00
2022-11-15T12:04:02.656Z,36224.00
2022-11-15T12:05:02.627Z,17408.00
2022-11-15T12:06:02.729Z,88160.00
2022-11-15T12:07:02.685Z,89664.00
2022-11-15T12:08:04.283Z,86432.00
2022-11-15T12:09:02.607Z,84352.00
2022-11-15T12:10:02.595Z,81280.00
2022-11-15T12:11:02.559Z,81472.00
2022-11-15T12:12:02.555Z,81120.00
2022-11-15T12:13:02.559Z,83648.00
2022-11-15T12:14:02.564Z,85856.00
2022-11-15T12:15:02.722Z,85504.00
2022-11-15T12:16:07.459Z,87872.00
2022-11-15T12:17:03.534Z,86432.00
2022-11-15T12:18:02.514Z,84352.00
2022-11-15T12:19:02.488Z,86304.00
2022-11-15T12:20:02.470Z,89184.00
2022-11-15T12:21:02.466Z,89984.00
2022-11-15T12:22:02.447Z,86592.00
2022-11-15T12:23:02.439Z,83360.00
2022-11-15T12:24:02.439Z,80800.00
2022-11-15T12:25:02.457Z,73824.00
2022-11-15T12:26:02.422Z,83520.00
2022-11-15T12:27:02.401Z,68544.00
2022-11-15T12:28:02.389Z,88128.00
2022-11-15T12:29:07.857Z,87136.00
2022-11-15T12:30:03.374Z,85280.00
2022-11-15T12:31:02.359Z,83168.00
2022-11-15T12:32:02.373Z,82112.00
2022-11-15T12:33:02.355Z,80800.00
2022-11-15T12:34:07.107Z,80128.00
2022-11-15T12:35:03.336Z,86784.00
2022-11-15T12:36:02.318Z,87456.00
2022-11-15T12:37:02.295Z,93248.00
2022-11-15T12:38:02.302Z,92224.00
2022-11-15T12:39:02.291Z,93408.00
2022-11-15T12:40:03.922Z,93248.00
2022-11-15T12:41:02.257Z,89824.00
2022-11-15T12:42:02.249Z,90240.00
2022-11-15T12:43:02.231Z,91456.00
2022-11-15T12:44:02.227Z,91616.00
2022-11-15T12:45:02.255Z,90560.00
2022-11-15T12:46:02.264Z,89056.00
2022-11-15T12:47:02.190Z,88608.00
2022-11-15T12:48:02.175Z,88960.00
2022-11-15T12:49:02.173Z,89248.00
2022-11-15T12:50:02.159Z,85984.00
2022-11-15T12:51:02.155Z,85952.00
2022-11-15T12:52:02.150Z,84832.00
2022-11-15T12:53:02.131Z,69152.00
2022-11-15T12:54:02.143Z,87296.00
2022-11-15T12:55:02.103Z,85120.00
2022-11-15T12:56:02.094Z,84960.00
2022-11-15T12:57:02.101Z,83488.00
2022-11-15T12:58:02.075Z,81216.00
2022-11-15T12:59:02.065Z,82560.00
2022-11-15T13:00:02.061Z,84416.00
2022-11-15T13:01:02.107Z,83456.00
2022-11-15T13:02:02.078Z,81120.00
2022-11-15T13:03:02.034Z,74592.00
2022-11-15T13:04:02.048Z,74336.00
2022-11-15T13:05:02.005Z,73440.00
2022-11-15T13:06:02.015Z,65664.00
2022-11-15T13:07:02.021Z,75136.00
2022-11-15T13:08:01.977Z,75488.00
2022-11-15T13:09:01.964Z,79200.00
2022-11-15T13:10:01.956Z,76672.00
2022-11-15T13:11:02.889Z,80000.00
2022-11-15T13:12:01.935Z,77408.00
2022-11-15T13:13:01.920Z,76960.00
2022-11-15T13:14:01.924Z,77440.00
2022-11-15T13:15:02.480Z,73024.00
2022-11-15T13:16:01.898Z,62976.00
2022-11-15T13:17:02.074Z,53888.00
2022-11-15T13:18:01.874Z,48480.00
2022-11-15T13:19:01.886Z,48672.00
2022-11-15T13:20:01.854Z,60384.00
2022-11-15T13:21:02.963Z,64928.00
2022-11-15T13:22:01.836Z,68704.00
2022-11-15T13:23:01.829Z,69536.00
2022-11-15T13:24:01.827Z,70272.00
2022-11-15T13:25:01.808Z,70656.00
2022-11-15T13:26:01.811Z,77440.00
2022-11-15T13:27:01.775Z,72704.00
2022-11-15T13:28:07.606Z,72096.00
2022-11-15T13:29:02.771Z,75744.00
2022-11-15T13:30:01.763Z,78624.00
2022-11-15T13:31:01.750Z,76864.00
2022-11-15T13:32:01.724Z,73920.00
2022-11-15T13:33:01.721Z,76992.00
2022-11-15T13:34:01.743Z,76736.00
2022-11-15T13:35:01.708Z,73920.00
2022-11-15T13:36:01.698Z,72384.00
2022-11-15T13:37:01.687Z,74720.00
2022-11-15T13:38:01.668Z,78336.00
2022-11-15T13:39:01.752Z,80640.00
2022-11-15T13:40:01.638Z,78592.00
2022-11-15T13:41:01.639Z,79776.00
2022-11-15T13:42:01.641Z,76992.00
2022-11-15T13:43:01.618Z,51392.00
2022-11-15T13:44:01.600Z,42592.00
2022-11-15T13:45:01.605Z,35744.00
2022-11-15T13:46:01.585Z,36864.00
2022-11-15T13:47:01.578Z,68864.00
2022-11-15T13:48:01.757Z,68704.00
2022-11-15T13:49:01.707Z,51296.00
2022-11-15T13:50:01.681Z,61248.00
2022-11-15T13:51:01.541Z,51232.00
2022-11-15T13:52:01.521Z,48064.00
2022-11-15T13:53:01.526Z,58464.00
2022-11-15T13:54:01.499Z,59072.00
2022-11-15T13:55:01.548Z,60800.00
2022-11-15T13:56:01.486Z,62080.00
2022-11-15T13:57:01.478Z,69760.00
2022-11-15T13:58:01.473Z,66528.00
2022-11-15T13:59:01.468Z,59072.00
2022-11-15T14:00:01.438Z,52384.00
2022-11-15T14:01:01.426Z,50240.00
2022-11-15T14:02:01.458Z,44864.00
2022-11-15T14:03:01.400Z,43616.00
2022-11-15T14:04:01.414Z,51936.00
2022-11-15T14:05:01.386Z,59328.00
2022-11-15T14:06:01.397Z,65728.00
2022-11-15T14:07:01.398Z,62880.00
2022-11-15T14:08:01.354Z,62848.00
2022-11-15T14:09:01.368Z,58688.00
2022-11-15T14:10:01.331Z,51136.00
2022-11-15T14:11:01.313Z,44640.00
2022-11-15T14:12:01.429Z,39744.00
2022-11-15T14:13:01.305Z,37440.00
2022-11-15T14:14:01.292Z,36864.00
2022-11-15T14:15:01.302Z,38080.00
2022-11-15T14:16:01.268Z,41184.00
2022-11-15T14:17:01.303Z,45312.00
2022-11-15T14:18:01.270Z,52064.00
2022-11-15T14:19:01.423Z,54528.00
2022-11-15T14:20:01.233Z,50848.00
2022-11-15T14:21:01.224Z,48736.00
2022-11-15T14:22:01.199Z,48768.00
2022-11-15T14:23:01.196Z,47872.00
2022-11-15T14:24:01.198Z,46784.00
2022-11-15T14:25:01.188Z,43168.00
2022-11-15T14:26:01.183Z,39360.00
2022-11-15T14:27:01.147Z,28800.00
2022-11-15T14:28:01.151Z,21120.00
2022-11-15T14:29:01.127Z,25792.00
2022-11-15T14:30:01.142Z,31392.00
2022-11-15T14:31:01.125Z,31200.00
2022-11-15T14:32:01.226Z,32832.00
2022-11-15T14:33:01.098Z,31680.00
2022-11-15T14:34:01.088Z,16576.00
2022-11-15T14:35:01.073Z,14656.00
2022-11-15T14:36:01.080Z,16768.00
2022-11-15T14:37:01.068Z,16800.00
2022-11-15T14:38:01.054Z,14944.00
2022-11-15T14:39:01.297Z,13920.00
2022-11-15T14:40:01.358Z,11296.00
2022-11-15T14:41:01.011Z,7952.00